Time;durP1;ratioP1;P1;durP2;ratioP2;P2;SDS_P1;SDS_P2;PMS_P1;PMS_P2;Temp;Humidity;BMP_temperature;BMP_pressure;BME280_temperature;BME280_humidity;BME280_pressure;Samples;Min_cycle;Max_cycle;Signal;HPM_P1;HPM_P2
2021/11/07 00:00:08;;;;;;;1003.17;934.38;;;;;;;20.10;52.02;101828.00;5074833;28;20047;-37
2021/11/07 00:02:53;;;;;;;1009.83;941.05;;;;;;;20.09;52.18;101825.47;5074606;28;20028;-37
2021/11/07 00:05:31;;;;;;;985.33;918.33;;;;;;;20.08;52.47;101829.13;5074729;28;20028;-37
2021/11/07 00:13:21;;;;;;;1017.75;946.90;;;;;;;20.06;52.57;101818.59;5074462;28;20078;-37
2021/11/07 00:15:48;;;;;;;990.25;922.03;;;;;;;20.08;52.15;101818.47;5073876;28;20432;-37
2021/11/07 00:18:16;;;;;;;989.90;921.88;;;;;;;20.06;52.41;101831.91;5074072;28;20025;-37
2021/11/07 00:21:27;;;;;;;1005.53;935.67;;;;;;;20.09;52.06;101836.13;5074466;28;20029;-37
2021/11/07 00:23:54;;;;;;;978.80;912.40;;;;;;;20.07;52.32;101840.75;5060808;28;20043;-37
2021/11/07 00:26:28;;;;;;;977.55;911.80;;;;;;;20.05;52.12;101830.22;5074058;28;20055;-37
2021/11/07 00:29:08;;;;;;;988.25;921.05;;;;;;;20.05;51.93;101830.22;5081648;28;20020;-37
2021/11/07 00:31:55;;;;;;;1002.15;934.00;;;;;;;20.06;51.99;101831.06;5088604;28;20032;-37
2021/11/07 00:37:12;;;;;;;964.67;900.08;;;;;;;20.03;52.20;101839.31;5073463;28;20108;-37
2021/11/07 00:40:23;;;;;;;965.92;901.60;;;;;;;20.03;52.47;101842.00;5074135;28;20389;-37
2021/11/07 00:42:41;;;;;;;986.63;920.85;;;;;;;20.03;52.07;101840.16;5069975;28;20094;-37
2021/11/07 00:45:22;;;;;;;1007.67;938.65;;;;;;;20.05;51.87;101837.38;5068863;28;20036;-37
2021/11/07 00:50:59;;;;;;;993.22;926.03;;;;;;;20.00;52.48;101845.72;5037729;28;20048;-35
2021/11/07 00:53:44;;;;;;;991.35;924.53;;;;;;;20.03;52.20;101850.00;5072647;28;20358;-35
2021/11/07 01:01:24;;;;;;;941.97;878.05;;;;;;;19.71;51.43;101843.59;5072195;28;20028;-45
2021/11/07 01:03:50;;;;;;;930.63;868.42;;;;;;;19.80;51.57;101852.72;5071598;28;20513;-44
2021/11/07 01:06:17;;;;;;;1004.10;936.13;;;;;;;19.85;51.67;101841.69;5077063;28;20121;-44
2021/11/07 01:08:44;;;;;;;1000.40;931.25;;;;;;;19.89;52.02;101835.13;5077197;28;20021;-44
2021/11/07 01:11:10;;;;;;;997.85;930.03;;;;;;;19.89;51.96;101840.44;5077375;28;20020;-44
2021/11/07 01:13:36;;;;;;;1005.67;936.33;;;;;;;19.91;51.60;101843.81;5077362;28;20038;-44
2021/11/07 01:16:03;;;;;;;983.03;917.30;;;;;;;19.89;51.75;101835.97;5077441;28;20024;-44
2021/11/07 01:18:29;;;;;;;1009.00;939.83;;;;;;;19.90;52.02;101847.50;5076323;28;20500;-44
2021/11/07 01:20:56;;;;;;;994.42;927.20;;;;;;;19.89;52.21;101841.28;5072856;28;20051;-44
2021/11/07 01:23:36;;;;;;;993.33;925.22;;;;;;;19.88;51.75;101844.94;5068062;28;20405;-44
2021/11/07 01:26:09;;;;;;;982.25;915.85;;;;;;;19.88;51.84;101849.41;5057624;28;20047;-44
2021/11/07 01:28:46;;;;;;;982.72;916.08;;;;;;;19.90;52.05;101866.97;5069559;28;20085;-44
2021/11/07 01:31:13;;;;;;;1011.95;942.08;;;;;;;19.92;51.89;101861.53;5077020;28;20020;-44
2021/11/07 01:33:39;;;;;;;966.10;900.72;;;;;;;19.91;51.80;101874.00;5077509;28;20046;-44
2021/11/07 01:38:54;;;;;;;989.28;922.30;;;;;;;19.93;52.19;101871.22;5057091;28;20087;-44
2021/11/07 01:41:29;;;;;;;980.03;914.25;;;;;;;19.90;52.07;101869.66;5061979;28;20735;-44
2021/11/07 01:43:58;;;;;;;1003.50;935.00;;;;;;;19.88;51.64;101874.25;5073467;28;20506;-44
2021/11/07 01:46:30;;;;;;;993.38;925.53;;;;;;;19.87;51.96;101872.56;5074868;28;20032;-44
2021/11/07 01:51:26;;;;;;;945.38;884.38;;;;;;;19.89;52.01;101856.44;5066712;28;19973;-44
2021/11/07 01:53:58;;;;;;;965.03;901.17;;;;;;;19.90;51.80;101859.00;5072965;28;20028;-44
2021/11/07 01:56:25;;;;;;;965.53;901.70;;;;;;;19.91;51.94;101854.50;5072519;28;20113;-44
2021/11/07 01:58:51;;;;;;;1007.85;939.00;;;;;;;19.91;51.64;101857.16;5074928;28;20032;-44
2021/11/07 02:01:21;;;;;;;979.20;913.08;;;;;;;19.89;51.70;101856.44;5071261;28;20122;-44
2021/11/07 02:03:48;;;;;;;984.53;917.63;;;;;;;19.90;52.01;101863.47;5059708;28;20032;-44
2021/11/07 02:06:14;;;;;;;1008.13;938.63;;;;;;;19.89;51.78;101857.28;5071201;28;20097;-44
2021/11/07 02:08:40;;;;;;;998.28;930.30;;;;;;;19.88;51.86;101874.25;5072700;28;20023;-44
2021/11/07 02:11:06;;;;;;;978.40;910.30;;;;;;;19.90;51.47;101868.81;5086026;28;20123;-44
2021/11/07 02:13:33;;;;;;;979.08;912.45;;;;;;;19.88;51.81;101882.25;5074181;28;20029;-44
2021/11/07 02:15:59;;;;;;;977.03;910.70;;;;;;;19.90;51.71;101880.31;5071691;28;20039;-44
2021/11/07 02:18:25;;;;;;;994.05;926.28;;;;;;;19.90;52.04;101874.97;5070491;28;20024;-44
2021/11/07 02:20:52;;;;;;;986.25;918.55;;;;;;;19.89;51.90;101873.28;5071521;28;20449;-44
2021/11/07 02:23:21;;;;;;;1004.42;935.80;;;;;;;19.82;52.00;101863.25;5073600;28;20107;-44
2021/11/07 02:25:48;;;;;;;1005.97;936.00;;;;;;;19.87;51.71;101874.38;5076075;28;20032;-44
2021/11/07 02:28:29;;;;;;;992.65;925.42;;;;;;;19.88;52.04;101878.72;5073935;28;20027;-44
2021/11/07 02:30:56;;;;;;;1001.67;933.45;;;;;;;19.85;51.64;101882.50;5073229;28;20089;-44
2021/11/07 02:33:23;;;;;;;975.72;910.15;;;;;;;19.83;51.42;101886.28;5074915;28;20469;-44
2021/11/07 02:35:49;;;;;;;988.90;922.33;;;;;;;19.82;51.87;101887.22;5073750;28;20062;-44
2021/11/07 02:38:16;;;;;;;975.80;910.53;;;;;;;19.82;51.47;101892.56;5075519;28;20029;-44
2021/11/07 02:40:42;;;;;;;993.85;927.60;;;;;;;19.84;51.47;101890.63;5076009;28;20036;-44
2021/11/07 02:43:08;;;;;;;987.75;920.63;;;;;;;19.85;51.55;101900.31;5075933;28;20111;-44
2021/11/07 02:45:35;;;;;;;986.55;919.13;;;;;;;19.75;51.65;101874.41;5074295;28;20028;-44
2021/11/07 02:48:01;;;;;;;997.70;929.40;;;;;;;19.88;51.79;101902.72;5074807;28;20056;-44
2021/11/07 02:50:28;;;;;;;1021.47;951.38;;;;;;;19.84;51.92;101898.63;5073099;28;20039;-44
2021/11/07 02:52:54;;;;;;;978.17;912.35;;;;;;;19.81;51.79;101891.72;5074067;28;20048;-44
2021/11/07 02:55:24;;;;;;;956.85;893.22;;;;;;;19.75;51.65;101887.75;5069884;28;20031;-44
2021/11/07 02:57:58;;;;;;;976.83;910.03;;;;;;;19.78;51.43;101897.28;5073486;28;20032;-44
2021/11/07 03:00:26;;;;;;;1016.20;947.20;;;;;;;19.79;51.75;101903.47;5071988;28;20020;-44
2021/11/07 03:02:52;;;;;;;1015.20;946.40;;;;;;;19.78;51.49;101896.47;5071951;28;20097;-44
2021/11/07 03:05:19;;;;;;;1012.95;943.38;;;;;;;19.70;51.62;101878.38;5074129;28;20179;-44
2021/11/07 03:07:45;;;;;;;1007.28;937.85;;;;;;;19.78;51.45;101880.47;5073584;28;20027;-44
2021/11/07 03:10:12;;;;;;;1012.65;943.78;;;;;;;19.78;51.57;101885.81;5070132;28;20107;-44
2021/11/07 03:12:38;;;;;;;981.28;914.92;;;;;;;19.82;51.29;101887.22;5070628;28;20029;-44
2021/11/07 03:15:06;;;;;;;992.55;924.53;;;;;;;19.75;51.49;101877.09;5077194;28;20040;-44
2021/11/07 03:17:33;;;;;;;1013.50;944.03;;;;;;;19.80;51.63;101892.69;5071159;28;20082;-44
2021/11/07 03:19:59;;;;;;;989.85;922.92;;;;;;;19.77;51.29;101895.59;5076015;28;20123;-44
2021/11/07 03:22:29;;;;;;;1001.88;932.63;;;;;;;19.64;51.62;101876.22;5061967;28;20205;-44
2021/11/07 03:24:56;;;;;;;1010.25;939.53;;;;;;;19.74;51.38;101887.88;5078472;28;20020;-44
2021/11/07 03:27:38;;;;;;;980.80;912.67;;;;;;;19.73;51.45;101905.66;5074546;28;20021;-44
2021/11/07 03:30:11;;;;;;;;;;;;;;;19.87;50.95;101906.38;5077105;28;20032;-44
2021/11/07 03:32:39;;;;;;;953.85;891.92;;;;;;;19.75;50.84;101910.88;5067815;28;19915;-44
2021/11/07 03:35:07;;;;;;;957.53;893.67;;;;;;;19.68;50.70;101907.81;5074552;28;20437;-44
2021/11/07 03:37:43;;;;;;;957.50;894.58;;;;;;;19.73;50.85;101918.97;5071153;28;20472;-44
2021/11/07 03:40:10;;;;;;;991.72;925.70;;;;;;;19.75;50.83;101922.41;5074168;28;20028;-43
2021/11/07 03:42:36;;;;;;;976.03;910.72;;;;;;;19.77;51.19;101910.75;5074418;28;20025;-44
2021/11/07 03:45:04;;;;;;;968.13;901.28;;;;;;;19.72;50.98;101903.94;5073507;28;20028;-43
2021/11/07 03:47:30;;;;;;;966.67;901.38;;;;;;;19.72;50.84;101916.44;5073676;28;20068;-43
2021/11/07 03:49:57;;;;;;;972.65;907.47;;;;;;;19.70;51.02;101918.34;5072699;28;20039;-44
2021/11/07 03:52:23;;;;;;;986.95;919.92;;;;;;;19.69;50.82;101914.84;5064648;28;20028;-44
2021/11/07 03:54:49;;;;;;;1005.17;935.47;;;;;;;19.68;50.80;101918.47;5069887;28;20476;-44
2021/11/07 03:57:15;;;;;;;988.15;921.22;;;;;;;19.66;50.58;101923.06;5073791;28;20029;-44
2021/11/07 03:59:43;;;;;;;991.92;924.13;;;;;;;19.66;50.74;101924.91;5066765;28;20021;-44
2021/11/07 04:02:10;;;;;;;998.90;930.67;;;;;;;19.65;50.67;101921.41;5073679;28;20036;-44
2021/11/07 04:04:38;;;;;;;934.60;872.72;;;;;;;19.66;50.37;101920.41;5070795;28;20083;-44
2021/11/07 04:07:04;;;;;;;935.70;872.55;;;;;;;19.65;50.78;101923.19;5070346;28;20025;-44
2021/11/07 04:09:30;;;;;;;962.15;897.45;;;;;;;19.67;50.68;101929.28;5073584;28;20044;-44
2021/11/07 04:11:57;;;;;;;990.78;923.58;;;;;;;19.67;50.64;101932.78;5071930;28;20446;-44
2021/11/07 04:14:23;;;;;;;995.50;927.95;;;;;;;19.67;50.63;101932.78;5060570;28;20040;-44
2021/11/07 04:16:49;;;;;;;993.58;926.50;;;;;;;19.64;50.66;101935.69;5072868;28;20182;-44
2021/11/07 04:19:15;;;;;;;998.33;929.92;;;;;;;19.63;50.93;101944.66;5072004;28;20026;-44
2021/11/07 04:21:45;;;;;;;993.42;926.38;;;;;;;19.63;50.71;101939.31;5072950;28;20094;-44
2021/11/07 04:24:11;;;;;;;962.05;897.40;;;;;;;19.62;50.51;101945.63;5069496;28;20032;-44
2021/11/07 04:26:37;;;;;;;975.40;908.97;;;;;;;19.62;50.51;101939.44;5076950;28;20033;-44
2021/11/07 04:29:04;;;;;;;990.17;921.45;;;;;;;19.62;50.71;101948.28;5073734;28;20441;-44
2021/11/07 04:31:31;;;;;;;976.95;911.17;;;;;;;19.61;50.30;101951.91;5071953;28;20031;-44
2021/11/07 04:33:57;;;;;;;962.97;897.55;;;;;;;19.62;50.26;101950.09;5073487;28;20025;-44
2021/11/07 04:36:24;;;;;;;975.47;910.17;;;;;;;19.60;50.21;101936.91;5061073;28;20024;-44
2021/11/07 04:38:50;;;;;;;947.13;882.53;;;;;;;19.60;50.19;101944.06;5073835;28;20028;-44
2021/11/07 04:41:21;;;;;;;991.30;924.00;;;;;;;19.63;50.65;101951.78;5089135;28;20063;-44
2021/11/07 04:43:48;;;;;;;969.90;904.65;;;;;;;19.61;50.57;101943.91;5077381;28;20369;-44
2021/11/07 04:46:15;;;;;;;992.75;925.72;;;;;;;19.53;50.54;101946.34;5072199;28;20045;-44
2021/11/07 04:48:45;;;;;;;967.95;901.17;;;;;;;19.56;50.82;101959.44;5070032;28;20353;-44
2021/11/07 04:51:11;;;;;;;963.17;898.55;;;;;;;19.56;50.30;101954.09;5074848;28;20024;-44
2021/11/07 04:53:38;;;;;;;963.42;897.78;;;;;;;19.55;50.44;101955.06;5066208;28;20028;-44
2021/11/07 04:56:04;;;;;;;998.60;930.40;;;;;;;19.55;50.32;101955.06;5076951;28;20106;-44
2021/11/07 04:58:30;;;;;;;983.33;917.38;;;;;;;19.55;50.37;101947.06;5073294;28;20024;-44
2021/11/07 05:00:57;;;;;;;985.78;918.75;;;;;;;19.55;50.34;101955.06;5080442;28;20385;-44
2021/11/07 05:03:23;;;;;;;987.75;921.20;;;;;;;19.55;50.04;101949.72;5073288;28;20413;-44
2021/11/07 05:05:50;;;;;;;959.65;896.00;;;;;;;19.56;50.48;101951.44;5077914;28;20078;-44
2021/11/07 05:08:16;;;;;;;930.45;869.53;;;;;;;19.57;50.61;101955.78;5079317;28;20044;-44
2021/11/07 05:10:42;;;;;;;943.78;881.85;;;;;;;19.56;50.56;101959.44;5084364;28;20036;-44
2021/11/07 05:13:10;;;;;;;957.25;893.72;;;;;;;19.55;50.25;101966.56;5074776;28;20411;-44
2021/11/07 05:15:36;;;;;;;939.92;877.28;;;;;;;19.56;50.21;101965.59;5073202;28;20024;-44
2021/11/07 05:18:03;;;;;;;949.55;884.58;;;;;;;19.50;50.39;101982.03;5076446;28;20021;-44
2021/11/07 05:20:29;;;;;;;950.97;888.05;;;;;;;19.49;50.49;101971.50;5073884;28;20035;-44
2021/11/07 05:22:56;;;;;;;906.80;846.80;;;;;;;19.51;50.50;101974.94;5076573;28;20097;-44
2021/11/07 05:25:22;;;;;;;923.72;863.20;;;;;;;19.52;50.27;101973.94;5074712;28;20032;-44
2021/11/07 05:27:49;;;;;;;909.70;849.22;;;;;;;19.16;50.34;101923.41;5076138;28;20043;-44
2021/11/07 05:30:16;;;;;;;926.63;865.28;;;;;;;19.53;50.26;101973.81;5075657;28;20473;-44
2021/11/07 05:32:44;;;;;;;961.90;897.15;;;;;;;19.48;50.01;101965.34;5072827;28;20040;-44
2021/11/07 05:35:11;;;;;;;922.33;862.97;;;;;;;19.51;49.97;101969.59;5078516;28;20036;-44
2021/11/07 05:37:37;;;;;;;922.15;861.55;;;;;;;19.50;49.98;101978.53;5077909;28;20032;-44
2021/11/07 05:40:06;;;;;;;921.75;862.53;;;;;;;19.47;50.48;101981.44;5071661;28;20028;-44
2021/11/07 05:42:32;;;;;;;937.10;875.83;;;;;;;19.44;50.21;101985.22;5080562;28;20028;-44
2021/11/07 05:44:59;;;;;;;1000.33;932.97;;;;;;;19.44;49.90;101990.53;5082792;28;20399;-44
2021/11/07 05:47:26;;;;;;;964.50;901.10;;;;;;;19.44;50.03;102001.19;5077620;28;20097;-44
2021/11/07 05:49:52;;;;;;;951.38;889.17;;;;;;;19.46;50.01;101993.91;5074921;28;20052;-44
2021/11/07 05:52:19;;;;;;;971.95;906.40;;;;;;;19.48;49.89;102005.31;5076014;28;20382;-44
2021/11/07 05:54:46;;;;;;;950.25;886.83;;;;;;;19.47;49.86;102006.28;5076917;28;20350;-44
2021/11/07 05:57:12;;;;;;;928.08;867.35;;;;;;;19.45;50.16;102005.53;5083141;28;20039;-44
2021/11/07 05:59:39;;;;;;;910.53;850.75;;;;;;;19.43;50.02;102004.81;5073601;28;20400;-44
2021/11/07 06:02:05;;;;;;;933.20;871.63;;;;;;;19.41;49.94;102008.56;5077663;28;20461;-44
2021/11/07 06:04:32;;;;;;;894.35;836.53;;;;;;;19.40;49.88;102022.84;5090352;28;20025;-44
2021/11/07 06:06:58;;;;;;;1003.63;935.80;;;;;;;19.07;49.92;101974.72;5081286;28;20021;-44
2021/11/07 06:09:24;;;;;;;917.88;858.10;;;;;;;19.36;49.75;102015.09;5077157;28;20024;-44
2021/11/07 06:11:50;;;;;;;931.53;870.42;;;;;;;19.40;50.04;102021.06;5084746;28;20028;-44
2021/11/07 06:14:17;;;;;;;923.60;863.58;;;;;;;19.36;49.97;102017.78;5089021;28;20032;-44
2021/11/07 06:16:43;;;;;;;935.20;874.10;;;;;;;19.42;49.55;102019.09;5075996;28;21300;-44
2021/11/07 06:19:09;;;;;;;936.78;874.58;;;;;;;19.40;49.94;102018.38;5077029;28;20103;-44
2021/11/07 06:21:37;;;;;;;973.35;908.25;;;;;;;19.37;49.47;102013.28;5075090;28;20067;-44
2021/11/07 06:24:07;;;;;;;972.45;907.17;;;;;;;19.34;49.96;102011.69;5068648;28;20078;-44
2021/11/07 06:26:33;;;;;;;944.92;882.60;;;;;;;18.88;49.85;101937.13;5084178;28;20357;-44
2021/11/07 06:28:59;;;;;;;956.92;893.33;;;;;;;19.32;49.59;102015.44;5074838;28;20473;-44
2021/11/07 06:31:26;;;;;;;947.60;884.30;;;;;;;19.31;49.48;102016.41;5073430;28;20031;-44
2021/11/07 06:33:52;;;;;;;927.33;866.63;;;;;;;19.33;49.83;102018.00;5074869;28;20446;-44
2021/11/07 06:36:18;;;;;;;971.78;907.50;;;;;;;19.34;49.40;102017.00;5086272;28;20023;-44
2021/11/07 06:38:45;;;;;;;953.75;890.95;;;;;;;19.34;49.82;102019.69;5089719;28;20059;-44
2021/11/07 06:41:11;;;;;;;966.75;902.47;;;;;;;19.33;49.43;102023.31;5076262;28;20040;-44
2021/11/07 06:43:37;;;;;;;992.63;926.58;;;;;;;19.32;49.61;102028.75;5074895;28;20477;-44
2021/11/07 06:46:03;;;;;;;934.50;872.92;;;;;;;19.28;49.54;102033.47;5087172;28;20055;-44
2021/11/07 06:48:30;;;;;;;950.53;887.45;;;;;;;19.26;49.85;102023.88;5072718;28;20095;-44
2021/11/07 06:50:56;;;;;;;948.92;886.55;;;;;;;19.25;49.35;102031.03;5077688;28;20065;-44
2021/11/07 06:53:23;;;;;;;987.03;920.28;;;;;;;19.25;49.55;102022.22;5082762;28;20331;-44
2021/11/07 06:55:50;;;;;;;956.22;893.38;;;;;;;19.25;49.86;102028.38;5078079;28;20020;-44
2021/11/07 06:58:17;;;;;;;972.22;907.50;;;;;;;19.27;49.47;102025.59;5081359;28;20442;-44
2021/11/07 07:00:44;;;;;;;982.17;917.25;;;;;;;19.18;49.81;102011.16;5079752;28;20470;-44
2021/11/07 07:03:10;;;;;;;966.63;902.83;;;;;;;19.24;49.36;102021.38;5069294;28;20046;-44
2021/11/07 07:05:36;;;;;;;974.13;909.53;;;;;;;19.27;49.71;102028.25;5065008;28;20442;-44
2021/11/07 07:08:13;;;;;;;987.17;921.13;;;;;;;19.21;49.56;102032.25;5078698;28;20024;-44
2021/11/07 07:10:51;;;;;;;979.10;914.40;;;;;;;19.18;50.01;102024.47;5074059;28;20131;-44
2021/11/07 07:13:25;;;;;;;959.92;896.03;;;;;;;19.22;49.72;102023.28;5070905;28;20120;-44
2021/11/07 07:16:10;;;;;;;940.95;879.58;;;;;;;19.19;49.81;102020.88;5077614;28;20025;-44
2021/11/07 07:21:36;;;;;;;946.33;884.17;;;;;;;19.20;49.84;102022.56;5074983;28;20039;-44
2021/11/07 07:34:42;;;;;;;965.90;901.50;;;;;;;19.14;49.67;102034.53;5041060;28;20029;-44
2021/11/07 07:37:08;;;;;;;964.72;901.70;;;;;;;19.12;49.63;102030.28;5060460;28;20098;-44
2021/11/07 07:39:35;;;;;;;950.72;888.60;;;;;;;19.12;49.69;102017.81;5072712;28;20017;-44
2021/11/07 07:42:01;;;;;;;944.13;883.20;;;;;;;19.08;49.66;102026.13;5067555;28;21179;-44
2021/11/07 07:44:28;;;;;;;947.20;885.30;;;;;;;19.08;49.53;102010.16;5071990;28;20156;-44
2021/11/07 07:46:54;;;;;;;961.40;898.13;;;;;;;19.07;49.72;101998.66;5073522;28;20024;-44
2021/11/07 07:49:21;;;;;;;946.67;883.97;;;;;;;19.14;49.62;102007.06;5073738;28;20453;-44
2021/11/07 07:51:47;;;;;;;920.55;861.13;;;;;;;19.14;49.92;102005.22;5074626;28;20111;-44
2021/11/07 07:54:13;;;;;;;962.97;899.72;;;;;;;19.14;49.67;102007.06;5073386;28;20024;-44
2021/11/07 07:56:40;;;;;;;949.67;886.92;;;;;;;19.08;49.84;102000.38;5073368;28;20029;-44
2021/11/07 07:59:06;;;;;;;975.55;910.92;;;;;;;19.05;49.85;101995.28;5072288;28;20023;-44
2021/11/07 08:01:33;;;;;;;942.28;879.65;;;;;;;18.57;49.86;101924.31;5073152;28;20526;-44
2021/11/07 08:03:59;;;;;;;954.55;891.25;;;;;;;18.99;50.00;101995.72;5068651;28;20024;-44
2021/11/07 08:06:25;;;;;;;950.28;887.45;;;;;;;18.97;50.00;101995.88;5073561;28;20031;-44
2021/11/07 08:08:52;;;;;;;957.55;894.65;;;;;;;19.00;49.69;102003.59;5070704;28;20458;-44
2021/11/07 08:11:18;;;;;;;920.25;859.97;;;;;;;19.00;49.54;102002.75;5073579;28;20466;-44
2021/11/07 08:13:47;;;;;;;964.00;901.15;;;;;;;19.05;49.71;102000.59;5072270;28;20024;-43
2021/11/07 08:16:15;;;;;;;971.80;907.88;;;;;;;19.05;49.49;101999.75;5073675;28;20488;-44
2021/11/07 08:18:41;;;;;;;979.08;914.65;;;;;;;19.07;49.61;102008.47;5072781;28;20021;-43
2021/11/07 08:21:08;;;;;;;967.88;904.35;;;;;;;19.02;49.41;102000.00;5073378;28;20024;-44
2021/11/07 08:23:34;;;;;;;955.65;892.65;;;;;;;18.99;49.65;102004.59;5073642;28;20163;-44
2021/11/07 08:26:02;;;;;;;961.83;897.97;;;;;;;18.95;49.81;101994.28;5072608;28;20085;-43
2021/11/07 08:28:29;;;;;;;955.28;893.92;;;;;;;18.95;49.80;102011.09;5063769;28;20059;-44
2021/11/07 08:31:03;;;;;;;976.45;911.95;;;;;;;18.96;49.50;101999.47;5072930;28;20036;-44
2021/11/07 08:33:30;;;;;;;946.30;884.00;;;;;;;18.90;49.88;101997.28;5072980;28;20028;-44
2021/11/07 08:36:02;;;;;;;936.70;875.55;;;;;;;18.93;49.63;102006.84;5073548;28;20087;-43
2021/11/07 08:38:33;;;;;;;;;;;;;;;19.09;49.15;102003.88;5070438;28;20071;-44
2021/11/07 08:41:00;;;;;;;882.20;827.38;;;;;;;18.98;49.19;102007.34;5072534;28;19920;-44
2021/11/07 09:10:03;;;;;;;919.08;860.90;;;;;;;18.86;48.75;101993.16;5073164;28;20032;-43
2021/11/07 09:12:30;;;;;;;909.88;851.88;;;;;;;18.87;49.12;101997.53;5072785;28;20028;-44
2021/11/07 09:15:00;;;;;;;928.20;868.88;;;;;;;18.83;49.13;102001.34;5071768;28;20047;-44
2021/11/07 09:17:27;;;;;;;935.63;875.22;;;;;;;18.79;49.29;101997.19;5072855;28;20029;-44
2021/11/07 09:19:55;;;;;;;938.38;878.10;;;;;;;18.77;49.04;101985.81;5072346;28;20361;-43
2021/11/07 09:22:36;;;;;;;949.40;887.05;;;;;;;18.76;48.89;101984.97;5073032;28;20031;-43
2021/11/07 09:25:16;;;;;;;924.63;865.95;;;;;;;18.77;48.94;101985.81;5058128;28;20033;-44
2021/11/07 09:27:53;;;;;;;920.45;860.55;;;;;;;18.75;48.45;101982.44;5074039;28;20077;-43
2021/11/07 09:30:29;;;;;;;913.00;854.78;;;;;;;18.72;48.67;101985.31;5076125;28;20089;-44
2021/11/07 09:35:41;;;;;;;909.70;851.35;;;;;;;18.77;48.34;101975.19;5075457;28;20025;-44
2021/11/07 09:40:43;;;;;;;899.55;843.05;;;;;;;18.76;48.30;101973.47;5075615;28;20043;-44
2021/11/07 09:48:26;;;;;;;894.90;837.65;;;;;;;18.67;48.62;101982.13;5073795;28;20075;-44
2021/11/07 09:50:53;;;;;;;819.13;769.22;;;;;;;18.66;48.51;101977.81;5067172;28;20354;-44
2021/11/07 09:53:19;;;;;;;936.22;875.53;;;;;;;18.63;48.11;101976.19;5072253;28;20032;-44
2021/11/07 09:55:46;;;;;;;938.85;878.33;;;;;;;18.62;48.38;101975.34;5075302;28;20420;-44
2021/11/07 09:58:14;;;;;;;910.72;852.40;;;;;;;18.62;48.04;101971.84;5075232;28;20085;-44
2021/11/07 10:00:52;;;;;;;896.65;840.42;;;;;;;18.66;48.10;101972.47;5074863;28;20040;-44
2021/11/07 10:03:19;;;;;;;931.17;872.10;;;;;;;18.64;48.09;101959.28;5073696;28;20428;-44
2021/11/07 10:05:49;;;;;;;916.80;858.53;;;;;;;18.68;47.95;101966.06;5075899;28;20477;-44
2021/11/07 10:08:16;;;;;;;930.15;870.58;;;;;;;18.66;48.08;101965.34;5075489;28;20473;-43
2021/11/07 10:11:03;;;;;;;922.97;863.80;;;;;;;18.49;48.28;101950.63;5075759;28;20454;-43
2021/11/07 10:13:31;;;;;;;903.97;846.80;;;;;;;18.58;48.15;101965.03;5073897;28;20081;-43
2021/11/07 10:16:12;;;;;;;915.17;855.80;;;;;;;18.54;48.01;101964.44;5075906;28;20090;-43
2021/11/07 10:18:46;;;;;;;904.80;846.90;;;;;;;18.53;48.05;101956.56;5074189;28;20035;-43
2021/11/07 10:21:23;;;;;;;928.80;869.70;;;;;;;18.54;47.97;101963.59;5076147;28;20033;-43
2021/11/07 10:24:23;;;;;;;891.53;835.17;;;;;;;18.57;47.73;101966.88;5075722;28;20024;-43
2021/11/07 10:26:58;;;;;;;898.58;843.08;;;;;;;18.56;47.48;101969.63;5074746;28;20017;-43
2021/11/07 10:29:35;;;;;;;904.08;846.58;;;;;;;18.54;47.65;101964.44;5067602;28;20050;-43
2021/11/07 10:32:08;;;;;;;903.30;846.45;;;;;;;18.57;47.80;101966.88;5073099;28;20369;-43
2021/11/07 10:37:24;;;;;;;898.45;841.15;;;;;;;18.53;47.48;101976.06;5074899;28;20484;-43
2021/11/07 10:40:24;;;;;;;882.55;827.10;;;;;;;18.48;47.64;101983.50;5071495;28;20028;-43
2021/11/07 10:45:25;;;;;;;834.22;783.00;;;;;;;18.44;47.71;101987.38;5073791;28;20469;-43
2021/11/07 10:53:29;;;;;;;855.75;802.55;;;;;;;18.40;47.36;101984.09;5074124;28;20031;-43
2021/11/07 10:56:03;;;;;;;858.70;805.35;;;;;;;18.39;47.33;101987.69;5075524;28;20043;-43
2021/11/07 10:58:30;;;;;;;893.80;838.45;;;;;;;18.45;47.25;101986.38;5069762;28;20029;-43
2021/11/07 11:00:56;;;;;;;880.33;824.97;;;;;;;18.44;47.08;101990.03;5073122;28;20052;-43
2021/11/07 11:03:23;;;;;;;892.03;836.40;;;;;;;18.46;47.45;102000.53;5073650;28;20398;-43
2021/11/07 11:06:04;;;;;;;908.40;851.22;;;;;;;18.41;47.23;101998.22;5074831;28;20024;-43
2021/11/07 11:08:35;;;;;;;859.53;806.05;;;;;;;18.37;47.57;101997.59;5074316;28;20020;-43
2021/11/07 11:11:29;;;;;;;906.88;849.17;;;;;;;18.34;47.19;102004.94;5070626;28;20583;-43
2021/11/07 11:14:00;;;;;;;904.60;848.08;;;;;;;18.32;47.22;101998.91;5067547;28;20047;-43
2021/11/07 11:19:50;;;;;;;908.97;851.38;;;;;;;18.29;46.94;102002.63;5070014;28;20029;-43
2021/11/07 11:22:35;;;;;;;821.58;771.35;;;;;;;18.25;47.16;101998.47;5074414;28;20078;-43
2021/11/07 11:29:01;;;;;;;764.40;719.28;;;;;;;18.31;46.92;101999.84;5073302;28;20031;-43
2021/11/07 11:31:04;;;;;;;801.63;753.53;;;;;;;18.34;46.91;101999.63;5064929;28;20488;-43
2021/11/07 11:33:40;;;;;;;817.22;767.80;;;;;;;18.31;46.88;101994.53;5074550;28;20021;-43
2021/11/07 11:36:20;;;;;;;845.03;794.10;;;;;;;17.88;47.05;101934.66;5073353;28;20115;-43
2021/11/07 11:38:54;;;;;;;888.22;832.70;;;;;;;18.22;47.24;102002.19;5072873;28;20020;-43
2021/11/07 11:41:26;;;;;;;896.78;840.58;;;;;;;18.11;47.06;101974.72;5073279;28;20477;-43
2021/11/07 11:43:54;;;;;;;862.13;809.25;;;;;;;18.21;46.99;101989.03;5071822;28;20028;-43
2021/11/07 11:46:46;;;;;;;910.85;853.85;;;;;;;18.18;46.74;101994.56;5049035;28;20038;-43
2021/11/07 11:49:34;;;;;;;866.85;813.65;;;;;;;18.19;46.73;101991.81;5065013;28;20104;-43
2021/11/07 12:00:31;;;;;;;857.63;805.25;;;;;;;18.17;46.92;102007.00;5064318;28;20112;-43
2021/11/07 12:08:22;;;;;;;846.33;794.38;;;;;;;18.10;46.67;102016.38;5073467;28;20517;-43
2021/11/07 12:11:02;;;;;;;829.10;778.20;;;;;;;18.09;46.63;102014.69;5070345;28;20044;-43
2021/11/07 12:13:40;;;;;;;813.83;764.63;;;;;;;18.04;46.70;102030.13;5066285;28;20043;-43
2021/11/07 12:16:21;;;;;;;886.70;831.08;;;;;;;18.04;46.68;102027.44;5073368;28;20024;-43
2021/11/07 12:19:08;;;;;;;866.67;812.88;;;;;;;18.06;46.63;102033.50;5073212;28;20029;-44
2021/11/07 12:21:55;;;;;;;810.25;761.05;;;;;;;18.01;46.64;102025.00;5073568;28;20028;-44
2021/11/07 12:24:25;;;;;;;877.55;823.22;;;;;;;17.99;46.64;102021.59;5072444;28;20450;-43
2021/11/07 12:26:52;;;;;;;869.22;815.53;;;;;;;18.02;46.46;102021.41;5073807;28;20123;-44
2021/11/07 12:29:39;;;;;;;847.30;794.78;;;;;;;18.06;46.72;102030.84;5072534;28;20408;-44
2021/11/07 12:32:09;;;;;;;852.63;800.10;;;;;;;17.95;46.37;102025.44;5071665;28;20123;-44
2021/11/07 12:35:10;;;;;;;875.30;820.83;;;;;;;18.00;46.41;102045.44;5072376;28;20453;-43
2021/11/07 12:40:54;;;;;;;852.65;800.25;;;;;;;17.93;46.62;102052.13;5054509;28;20036;-44
2021/11/07 12:43:43;;;;;;;828.28;777.72;;;;;;;17.90;46.45;102059.47;5063695;28;20438;-43
2021/11/07 12:49:14;;;;;;;835.53;784.40;;;;;;;17.83;46.28;102054.53;5074382;28;20028;-44
2021/11/07 12:51:44;;;;;;;884.38;829.92;;;;;;;17.85;46.08;102055.34;5073374;28;20083;-44
2021/11/07 12:54:16;;;;;;;845.70;794.05;;;;;;;17.85;46.26;102065.06;5073391;28;20020;-44
2021/11/07 12:56:52;;;;;;;832.10;781.35;;;;;;;17.84;46.44;102066.88;5073531;28;20120;-44